Flight Number: AVA2210 Duration: 3:30
Departure: Anchorage Intl Airport (PANC) at 21:40 Distance: 1338.94 Nm
Arrival: Portland Intl Airport (KPDX) at 01:10 Equipment: B757-200

Weather Information
TED STEVENS ANCHORAGE INTERNATIONAL , AK, United States (PANC) 61-10N 150-02W 48M Oct 22, 2020 - 06:53 AM EDT / 2020.10.22 1053 UTC
Wind: from the N (360 degrees) at 5 MPH (4 KT):0
Visibility: 10 mile(s):0
Sky conditions: clear Temperature: 28.0 F (-2.2 C)
Windchill: 23 F (-5 C):1 Dew Point: 21.0 F (-6.1 C) Relative Humidity: 74% Pressure (altimeter): 30.47 in. Hg (1031 hPa)
ob: PANC 221053Z 36004KT 10SM CLR M02/M06 A3047 RMK AO2 SLP321 I1000 T10221061 cycle: 11
Sunrise: 17:09 Sunset: 02:18 (UTC)

PORTLAND INTERNATIONAL AIRPORT, OR, United States (KPDX) 45-35N 122-36W 7M Oct 22, 2020 - 06:53 AM EDT / 2020.10.22 1053 UTC
Wind: Calm:0
Visibility: 10 mile(s):0
Sky conditions: clear Temperature: 39.9 F (4.4 C) Dew Point: 35.1 F (1.7 C) Relative Humidity: 82% Pressure (altimeter): 30.34 in. Hg (1027 hPa)
ob: KPDX 221053Z 00000KT 10SM CLR 04/02 A3034 RMK AO2 SLP272 T00440017 cycle: 11
Sunrise: 14:41 Sunset: 01:07 (UTC)

TAF:2020/10/22 12:46 TAF KPDX 221144Z 2212/2312 00000KT P6SM SCT011 FM221600 VRB02KT P6SM SKC FM222000 34006KT P6SM SKC FM230600 07004KT P6SM FEW250

This route has never been flown.

Route map